sensor_id;sensor_type;location;lat;lon;timestamp;pressure;altitude;pressure_sealevel;temperature;humidity
19890;BME280;10107;51.198;6.824;2023-02-28T00:03:50;-21276.66;;;-1.70;100.00
19890;BME280;10107;51.198;6.824;2023-02-28T00:07:51;-21276.94;;;-1.69;100.00
19890;BME280;10107;51.198;6.824;2023-02-28T00:11:53;-21276.81;;;-1.69;100.00
19890;BME280;10107;51.198;6.824;2023-02-28T00:15:58;-21276.25;;;-1.71;100.00
19890;BME280;10107;51.198;6.824;2023-02-28T00:20:01;-21276.25;;;-1.71;100.00
19890;BME280;10107;51.198;6.824;2023-02-28T00:24:11;-21278.56;;;-1.63;100.00
19890;BME280;10107;51.198;6.824;2023-02-28T00:28:13;-21279.50;;;-1.59;100.00
19890;BME280;10107;51.198;6.824;2023-02-28T00:32:15;-21279.22;;;-1.60;100.00
19890;BME280;10107;51.198;6.824;2023-02-28T00:36:18;-21279.50;;;-1.59;100.00
19890;BME280;10107;51.198;6.824;2023-02-28T00:40:19;-21279.09;;;-1.61;100.00
19890;BME280;10107;51.198;6.824;2023-02-28T00:44:21;-21278.81;;;-1.62;100.00
19890;BME280;10107;51.198;6.824;2023-02-28T00:48:22;-21278.28;;;-1.64;100.00
19890;BME280;10107;51.198;6.824;2023-02-28T00:52:25;-21278.16;;;-1.64;100.00
19890;BME280;10107;51.198;6.824;2023-02-28T00:56:28;-21279.78;;;-1.58;100.00
19890;BME280;10107;51.198;6.824;2023-02-28T01:00:31;-21281.00;;;-1.53;100.00
19890;BME280;10107;51.198;6.824;2023-02-28T01:04:32;-21279.91;;;-1.57;100.00
19890;BME280;10107;51.198;6.824;2023-02-28T01:08:37;-21276.94;;;-1.69;100.00
19890;BME280;10107;51.198;6.824;2023-02-28T01:12:39;-21273.44;;;-1.82;100.00
19890;BME280;10107;51.198;6.824;2023-02-28T01:16:42;-21271.00;;;-1.91;100.00
19890;BME280;10107;51.198;6.824;2023-02-28T01:20:43;-21270.34;;;-1.94;100.00
19890;BME280;10107;51.198;6.824;2023-02-28T01:24:47;-21269.38;;;-1.97;100.00
19890;BME280;10107;51.198;6.824;2023-02-28T01:28:49;-21267.91;;;-2.03;100.00
19890;BME280;10107;51.198;6.824;2023-02-28T01:32:52;-21266.56;;;-2.08;100.00
19890;BME280;10107;51.198;6.824;2023-02-28T01:36:53;-21266.41;;;-2.09;100.00
19890;BME280;10107;51.198;6.824;2023-02-28T01:40:56;-21266.41;;;-2.09;100.00
19890;BME280;10107;51.198;6.824;2023-02-28T01:45:00;-21269.25;;;-1.98;100.00
19890;BME280;10107;51.198;6.824;2023-02-28T01:49:11;-21273.97;;;-1.80;100.00
19890;BME280;10107;51.198;6.824;2023-02-28T01:53:15;-21277.34;;;-1.67;100.00
19890;BME280;10107;51.198;6.824;2023-02-28T01:57:19;-21278.16;;;-1.64;100.00
19890;BME280;10107;51.198;6.824;2023-02-28T02:01:24;-21276.66;;;-1.70;100.00
19890;BME280;10107;51.198;6.824;2023-02-28T02:05:28;-21275.47;;;-1.74;100.00
19890;BME280;10107;51.198;6.824;2023-02-28T02:09:31;-21273.69;;;-1.81;100.00
19890;BME280;10107;51.198;6.824;2023-02-28T02:17:57;-21272.50;;;-1.86;100.00
19890;BME280;10107;51.198;6.824;2023-02-28T02:22:07;-21271.41;;;-1.90;100.00
19890;BME280;10107;51.198;6.824;2023-02-28T02:30:42;-21265.75;;;-2.11;100.00
19890;BME280;10107;51.198;6.824;2023-02-28T02:39:05;-21261.03;;;-2.29;100.00
19890;BME280;10107;51.198;6.824;2023-02-28T02:43:10;-21258.19;;;-2.40;100.00
19890;BME280;10107;51.198;6.824;2023-02-28T02:47:16;-21256.56;;;-2.46;100.00
19890;BME280;10107;51.198;6.824;2023-02-28T02:51:19;-21256.16;;;-2.48;100.00
19890;BME280;10107;51.198;6.824;2023-02-28T02:55:24;-21255.22;;;-2.51;100.00
19890;BME280;10107;51.198;6.824;2023-02-28T02:59:26;-21253.75;;;-2.57;100.00
19890;BME280;10107;51.198;6.824;2023-02-28T03:03:30;-21253.34;;;-2.59;100.00
19890;BME280;10107;51.198;6.824;2023-02-28T03:07:34;-21253.34;;;-2.59;100.00
19890;BME280;10107;51.198;6.824;2023-02-28T03:11:37;-21254.41;;;-2.54;100.00
19890;BME280;10107;51.198;6.824;2023-02-28T03:15:41;-21255.91;;;-2.49;100.00
19890;BME280;10107;51.198;6.824;2023-02-28T03:19:49;-21255.91;;;-2.49;100.00
19890;BME280;10107;51.198;6.824;2023-02-28T03:23:53;-21256.97;;;-2.45;100.00
19890;BME280;10107;51.198;6.824;2023-02-28T03:28:04;-21256.72;;;-2.46;100.00
19890;BME280;10107;51.198;6.824;2023-02-28T03:32:09;-21257.25;;;-2.44;100.00
19890;BME280;10107;51.198;6.824;2023-02-28T03:36:15;-21258.47;;;-2.39;100.00
19890;BME280;10107;51.198;6.824;2023-02-28T03:40:19;-21259.28;;;-2.36;100.00
19890;BME280;10107;51.198;6.824;2023-02-28T03:44:24;-21261.16;;;-2.29;100.00
19890;BME280;10107;51.198;6.824;2023-02-28T03:48:28;-21262.09;;;-2.25;100.00
19890;BME280;10107;51.198;6.824;2023-02-28T03:52:33;-21262.50;;;-2.24;100.00
19890;BME280;10107;51.198;6.824;2023-02-28T03:56:37;-21262.09;;;-2.25;100.00
19890;BME280;10107;51.198;6.824;2023-02-28T04:00:43;-21261.16;;;-2.29;100.00
19890;BME280;10107;51.198;6.824;2023-02-28T04:04:46;-21260.34;;;-2.32;100.00
19890;BME280;10107;51.198;6.824;2023-02-28T04:08:48;-21258.88;;;-2.37;100.00
19890;BME280;10107;51.198;6.824;2023-02-28T04:12:50;-21258.59;;;-2.39;100.00
19890;BME280;10107;51.198;6.824;2023-02-28T04:16:53;-21258.59;;;-2.39;100.00
19890;BME280;10107;51.198;6.824;2023-02-28T04:20:54;-21258.47;;;-2.39;100.00
19890;BME280;10107;51.198;6.824;2023-02-28T04:24:56;-21257.25;;;-2.44;100.00
19890;BME280;10107;51.198;6.824;2023-02-28T04:29:00;-21256.56;;;-2.46;100.00
19890;BME280;10107;51.198;6.824;2023-02-28T04:33:03;-21256.72;;;-2.46;100.00
19890;BME280;10107;51.198;6.824;2023-02-28T04:37:05;-21256.56;;;-2.46;100.00
19890;BME280;10107;51.198;6.824;2023-02-28T04:41:06;-21255.50;;;-2.50;100.00
19890;BME280;10107;51.198;6.824;2023-02-28T04:45:08;-21254.81;;;-2.53;100.00
19890;BME280;10107;51.198;6.824;2023-02-28T04:49:13;-21254.94;;;-2.52;100.00
19890;BME280;10107;51.198;6.824;2023-02-28T04:53:15;-21254.00;;;-2.56;100.00
19890;BME280;10107;51.198;6.824;2023-02-28T04:57:17;-21253.59;;;-2.57;100.00
19890;BME280;10107;51.198;6.824;2023-02-28T05:01:20;-21254.16;;;-2.55;100.00
19890;BME280;10107;51.198;6.824;2023-02-28T05:05:23;-21253.59;;;-2.57;100.00
19890;BME280;10107;51.198;6.824;2023-02-28T05:09:24;-21252.94;;;-2.60;100.00
19890;BME280;10107;51.198;6.824;2023-02-28T05:13:26;-21252.78;;;-2.61;100.00
19890;BME280;10107;51.198;6.824;2023-02-28T05:17:27;-21252.38;;;-2.62;100.00
19890;BME280;10107;51.198;6.824;2023-02-28T05:21:30;-21253.06;;;-2.60;100.00
19890;BME280;10107;51.198;6.824;2023-02-28T05:25:32;-21253.34;;;-2.59;100.00
19890;BME280;10107;51.198;6.824;2023-02-28T05:29:34;-21252.38;;;-2.62;100.00
19890;BME280;10107;51.198;6.824;2023-02-28T05:33:41;-21252.38;;;-2.62;100.00
19890;BME280;10107;51.198;6.824;2023-02-28T05:37:44;-21251.44;;;-2.66;100.00
19890;BME280;10107;51.198;6.824;2023-02-28T05:41:46;-21251.59;;;-2.65;100.00
19890;BME280;10107;51.198;6.824;2023-02-28T05:45:47;-21250.22;;;-2.70;100.00
19890;BME280;10107;51.198;6.824;2023-02-28T05:49:48;-21249.56;;;-2.73;100.00
19890;BME280;10107;51.198;6.824;2023-02-28T05:53:51;-21249.97;;;-2.71;100.00
19890;BME280;10107;51.198;6.824;2023-02-28T05:57:53;-21249.28;;;-2.74;100.00
19890;BME280;10107;51.198;6.824;2023-02-28T06:01:54;-21249.97;;;-2.71;100.00
19890;BME280;10107;51.198;6.824;2023-02-28T06:05:56;-21249.56;;;-2.73;100.00
19890;BME280;10107;51.198;6.824;2023-02-28T06:09:59;-21250.63;;;-2.69;100.00
19890;BME280;10107;51.198;6.824;2023-02-28T06:14:00;-21251.59;;;-2.65;100.00
19890;BME280;10107;51.198;6.824;2023-02-28T06:18:02;-21253.19;;;-2.59;100.00
19890;BME280;10107;51.198;6.824;2023-02-28T06:22:03;-21254.28;;;-2.55;99.66
19890;BME280;10107;51.198;6.824;2023-02-28T06:26:06;-21254.81;;;-2.53;99.21
19890;BME280;10107;51.198;6.824;2023-02-28T06:30:08;-21255.91;;;-2.49;97.29
19890;BME280;10107;51.198;6.824;2023-02-28T06:34:10;-21258.47;;;-2.39;95.91
19890;BME280;10107;51.198;6.824;2023-02-28T06:38:12;-21260.91;;;-2.30;95.35
19890;BME280;10107;51.198;6.824;2023-02-28T06:42:14;-21262.50;;;-2.24;93.96
19890;BME280;10107;51.198;6.824;2023-02-28T06:46:16;-21263.59;;;-2.20;93.75
19890;BME280;10107;51.198;6.824;2023-02-28T06:50:17;-21265.47;;;-2.12;94.07
19890;BME280;10107;51.198;6.824;2023-02-28T06:54:20;-21265.47;;;-2.12;92.76
19890;BME280;10107;51.198;6.824;2023-02-28T06:58:23;-21267.91;;;-2.03;91.80
19890;BME280;10107;51.198;6.824;2023-02-28T07:02:24;-21270.06;;;-1.95;91.67
19890;BME280;10107;51.198;6.824;2023-02-28T07:06:26;-21272.75;;;-1.85;90.64
19890;BME280;10107;51.198;6.824;2023-02-28T07:10:28;-21274.25;;;-1.79;89.86
19890;BME280;10107;51.198;6.824;2023-02-28T07:14:31;-21275.72;;;-1.73;88.56
19890;BME280;10107;51.198;6.824;2023-02-28T07:18:32;-21278.56;;;-1.63;86.62
19890;BME280;10107;51.198;6.824;2023-02-28T07:22:34;-21281.66;;;-1.51;85.74
19890;BME280;10107;51.198;6.824;2023-02-28T07:26:35;-21285.97;;;-1.34;84.24
19890;BME280;10107;51.198;6.824;2023-02-28T07:30:38;-21289.88;;;-1.20;81.72
19890;BME280;10107;51.198;6.824;2023-02-28T07:34:40;-21295.69;;;-0.97;80.83
19890;BME280;10107;51.198;6.824;2023-02-28T07:38:42;-21302.41;;;-0.72;79.05
19890;BME280;10107;51.198;6.824;2023-02-28T07:42:44;-21308.59;;;-0.48;77.64
19890;BME280;10107;51.198;6.824;2023-02-28T07:46:51;-21318.44;;;-0.11;77.33
19890;BME280;10107;51.198;6.824;2023-02-28T07:50:54;-21330.00;;;0.33;73.27
19890;BME280;10107;51.198;6.824;2023-02-28T07:54:56;-21343.56;;;0.85;70.32
19890;BME280;10107;51.198;6.824;2023-02-28T07:58:57;-21400.44;;;3.03;62.86
19890;BME280;10107;51.198;6.824;2023-02-28T08:03:00;-21647.34;;;12.55;35.38
19890;BME280;10107;51.198;6.824;2023-02-28T08:07:02;-21801.75;;;18.57;24.39
19890;BME280;10107;51.198;6.824;2023-02-28T08:11:03;-21871.38;;;21.31;21.15
19890;BME280;10107;51.198;6.824;2023-02-28T08:15:05;-21919.69;;;23.22;17.90
19890;BME280;10107;51.198;6.824;2023-02-28T08:19:09;-21954.75;;;24.61;16.47
19890;BME280;10107;51.198;6.824;2023-02-28T08:23:10;-21941.44;;;24.08;15.92
19890;BME280;10107;51.198;6.824;2023-02-28T08:27:12;-21871.88;;;21.33;17.63
19890;BME280;10107;51.198;6.824;2023-02-28T08:31:14;-21761.03;;;16.98;21.14
19890;BME280;10107;51.198;6.824;2023-02-28T08:35:17;-21691.41;;;14.26;23.20
19890;BME280;10107;51.198;6.824;2023-02-28T08:39:19;-21661.59;;;13.10;25.56
19890;BME280;10107;51.198;6.824;2023-02-28T08:43:21;-21665.16;;;13.24;25.43
19890;BME280;10107;51.198;6.824;2023-02-28T08:47:22;-21661.59;;;13.10;25.87
19890;BME280;10107;51.198;6.824;2023-02-28T08:51:25;-21657.66;;;12.95;24.86
19890;BME280;10107;51.198;6.824;2023-02-28T08:55:27;-21662.66;;;13.14;25.25
19890;BME280;10107;51.198;6.824;2023-02-28T08:59:29;-21682.44;;;13.91;24.29
19890;BME280;10107;51.198;6.824;2023-02-28T09:03:30;-21678.75;;;13.77;23.77
19890;BME280;10107;51.198;6.824;2023-02-28T09:11:56;-21648.53;;;12.59;24.84
19890;BME280;10107;51.198;6.824;2023-02-28T09:15:58;-21660.69;;;13.06;24.65
19890;BME280;10107;51.198;6.824;2023-02-28T09:19:59;-21657.13;;;12.93;24.63
19890;BME280;10107;51.198;6.824;2023-02-28T09:24:01;-21649.47;;;12.63;24.56
19890;BME280;10107;51.198;6.824;2023-02-28T09:28:04;-21666.63;;;13.30;24.10
19890;BME280;10107;51.198;6.824;2023-02-28T09:32:05;-21653.16;;;12.77;24.09
19890;BME280;10107;51.198;6.824;2023-02-28T09:36:08;-21662.41;;;13.13;24.27
19890;BME280;10107;51.198;6.824;2023-02-28T09:40:10;-21676.66;;;13.69;23.36
19890;BME280;10107;51.198;6.824;2023-02-28T09:44:15;-21680.88;;;13.85;22.64
19890;BME280;10107;51.198;6.824;2023-02-28T09:48:20;-21661.22;;;13.08;23.79
19890;BME280;10107;51.198;6.824;2023-02-28T09:52:25;-21636.66;;;12.13;24.99
19890;BME280;10107;51.198;6.824;2023-02-28T09:56:30;-21644.97;;;12.45;25.17
19890;BME280;10107;51.198;6.824;2023-02-28T10:00:36;-21649.88;;;12.64;24.84
19890;BME280;10107;51.198;6.824;2023-02-28T10:04:42;-21683.75;;;13.96;23.35
19890;BME280;10107;51.198;6.824;2023-02-28T10:08:46;-21696.53;;;14.46;23.22
19890;BME280;10107;51.198;6.824;2023-02-28T10:12:53;-21646.16;;;12.50;24.06
19890;BME280;10107;51.198;6.824;2023-02-28T10:16:57;-21649.06;;;12.61;24.40
19890;BME280;10107;51.198;6.824;2023-02-28T10:21:00;-21672.16;;;13.51;23.11
19890;BME280;10107;51.198;6.824;2023-02-28T10:25:04;-21683.38;;;13.95;22.78
19890;BME280;10107;51.198;6.824;2023-02-28T10:29:07;-21704.16;;;14.76;22.45
19890;BME280;10107;51.198;6.824;2023-02-28T10:33:15;-21727.84;;;15.68;21.39
19890;BME280;10107;51.198;6.824;2023-02-28T10:37:19;-21689.28;;;14.18;22.33
19890;BME280;10107;51.198;6.824;2023-02-28T10:41:28;-21688.50;;;14.15;22.56
19890;BME280;10107;51.198;6.824;2023-02-28T10:45:30;-21679.28;;;13.79;22.73
19890;BME280;10107;51.198;6.824;2023-02-28T10:49:33;-21662.00;;;13.12;23.97
19890;BME280;10107;51.198;6.824;2023-02-28T10:53:39;-21659.50;;;13.02;24.26
19890;BME280;10107;51.198;6.824;2023-02-28T10:57:47;-21661.59;;;13.10;23.96
19890;BME280;10107;51.198;6.824;2023-02-28T11:01:49;-21666.09;;;13.27;24.63
19890;BME280;10107;51.198;6.824;2023-02-28T11:05:54;-21696.94;;;14.48;23.70
19890;BME280;10107;51.198;6.824;2023-02-28T11:09:56;-21706.00;;;14.83;22.23
19890;BME280;10107;51.198;6.824;2023-02-28T11:14:02;-21691.66;;;14.27;23.42
19890;BME280;10107;51.198;6.824;2023-02-28T11:18:06;-21713.09;;;15.11;22.90
19890;BME280;10107;51.198;6.824;2023-02-28T11:22:19;-21732.81;;;15.88;22.00
19890;BME280;10107;51.198;6.824;2023-02-28T11:26:42;-21721.91;;;15.45;22.16
19890;BME280;10107;51.198;6.824;2023-02-28T11:30:43;-21681.38;;;13.87;23.09
19890;BME280;10107;51.198;6.824;2023-02-28T11:34:46;-21674.53;;;13.60;23.39
19890;BME280;10107;51.198;6.824;2023-02-28T11:39:07;-21656.06;;;12.88;24.15
19890;BME280;10107;51.198;6.824;2023-02-28T11:43:19;-21573.38;;;9.68;28.21
19890;BME280;10107;51.198;6.824;2023-02-28T11:47:26;-21578.28;;;9.87;28.52
19890;BME280;10107;51.198;6.824;2023-02-28T11:51:32;-21526.47;;;7.87;30.82
19890;BME280;10107;51.198;6.824;2023-02-28T11:55:36;-21522.22;;;7.70;32.10
19890;BME280;10107;51.198;6.824;2023-02-28T11:59:44;-21588.88;;;10.28;28.32
19890;BME280;10107;51.198;6.824;2023-02-28T12:03:52;-21656.47;;;12.90;25.79
19890;BME280;10107;51.198;6.824;2023-02-28T12:08:00;-21683.22;;;13.94;23.72
19890;BME280;10107;51.198;6.824;2023-02-28T12:12:07;-21692.84;;;14.32;23.52
19890;BME280;10107;51.198;6.824;2023-02-28T12:16:18;-21691.53;;;14.26;23.44
19890;BME280;10107;51.198;6.824;2023-02-28T12:20:25;-21666.75;;;13.30;24.16
19890;BME280;10107;51.198;6.824;2023-02-28T12:24:35;-21654.34;;;12.82;25.38
19890;BME280;10107;51.198;6.824;2023-02-28T12:28:47;-21670.59;;;13.45;25.06
19890;BME280;10107;51.198;6.824;2023-02-28T12:32:52;-21641.69;;;12.33;26.60
19890;BME280;10107;51.198;6.824;2023-02-28T12:36:55;-21563.81;;;9.31;29.93
19890;BME280;10107;51.198;6.824;2023-02-28T12:41:00;-21533.00;;;8.12;34.04
19890;BME280;10107;51.198;6.824;2023-02-28T12:45:05;-21522.09;;;7.70;34.48
19890;BME280;10107;51.198;6.824;2023-02-28T12:49:10;-21504.50;;;7.02;36.11
19890;BME280;10107;51.198;6.824;2023-02-28T12:53:15;-21496.00;;;6.69;37.03
19890;BME280;10107;51.198;6.824;2023-02-28T12:57:19;-21490.00;;;6.46;36.46
19890;BME280;10107;51.198;6.824;2023-02-28T13:01:39;-21491.47;;;6.52;36.70
19890;BME280;10107;51.198;6.824;2023-02-28T13:05:50;-21490.53;;;6.48;37.21
19890;BME280;10107;51.198;6.824;2023-02-28T13:09:59;-21486.94;;;6.34;36.97
19890;BME280;10107;51.198;6.824;2023-02-28T13:14:02;-21478.94;;;6.04;37.01
19890;BME280;10107;51.198;6.824;2023-02-28T13:18:20;-21475.72;;;5.91;38.47
19890;BME280;10107;51.198;6.824;2023-02-28T13:22:39;-21474.00;;;5.85;38.16
19890;BME280;10107;51.198;6.824;2023-02-28T13:31:09;-21469.44;;;5.67;39.06
19890;BME280;10107;51.198;6.824;2023-02-28T13:35:15;-21469.97;;;5.69;38.73
19890;BME280;10107;51.198;6.824;2023-02-28T13:39:45;-21466.78;;;5.57;38.93
19890;BME280;10107;51.198;6.824;2023-02-28T13:43:59;-21465.72;;;5.53;40.07
19890;BME280;10107;51.198;6.824;2023-02-28T13:48:01;-21465.44;;;5.52;39.43
19890;BME280;10107;51.198;6.824;2023-02-28T13:52:06;-21462.38;;;5.40;40.32
19890;BME280;10107;51.198;6.824;2023-02-28T13:56:19;-21464.09;;;5.47;39.99
19890;BME280;10107;51.198;6.824;2023-02-28T14:00:28;-21463.84;;;5.46;41.14
19890;BME280;10107;51.198;6.824;2023-02-28T14:08:57;-21461.72;;;5.38;40.96
19890;BME280;10107;51.198;6.824;2023-02-28T14:13:01;-21459.84;;;5.30;41.30
19890;BME280;10107;51.198;6.824;2023-02-28T14:17:04;-21462.66;;;5.41;41.61
19890;BME280;10107;51.198;6.824;2023-02-28T14:21:11;-21464.25;;;5.47;40.65
19890;BME280;10107;51.198;6.824;2023-02-28T14:25:18;-21463.44;;;5.44;41.61
19890;BME280;10107;51.198;6.824;2023-02-28T14:29:30;-21461.31;;;5.36;41.44
19890;BME280;10107;51.198;6.824;2023-02-28T14:33:44;-21460.25;;;5.32;41.85
19890;BME280;10107;51.198;6.824;2023-02-28T14:37:48;-21459.16;;;5.28;42.26
19890;BME280;10107;51.198;6.824;2023-02-28T14:41:51;-21456.09;;;5.16;41.96
19890;BME280;10107;51.198;6.824;2023-02-28T14:45:56;-21455.03;;;5.12;43.24
19890;BME280;10107;51.198;6.824;2023-02-28T14:49:59;-21458.50;;;5.25;43.45
19890;BME280;10107;51.198;6.824;2023-02-28T14:54:01;-21460.25;;;5.32;42.80
19890;BME280;10107;51.198;6.824;2023-02-28T14:58:06;-21458.09;;;5.24;42.62
19890;BME280;10107;51.198;6.824;2023-02-28T15:02:18;-21455.97;;;5.15;43.00
19890;BME280;10107;51.198;6.824;2023-02-28T15:06:19;-21454.75;;;5.11;43.03
19890;BME280;10107;51.198;6.824;2023-02-28T15:10:23;-21455.16;;;5.12;43.41
19890;BME280;10107;51.198;6.824;2023-02-28T15:14:27;-21454.91;;;5.11;44.13
19890;BME280;10107;51.198;6.824;2023-02-28T15:18:31;-21453.16;;;5.05;44.06
19890;BME280;10107;51.198;6.824;2023-02-28T15:22:35;-21451.56;;;4.99;44.13
19890;BME280;10107;51.198;6.824;2023-02-28T15:26:39;-21451.69;;;4.99;43.70
19890;BME280;10107;51.198;6.824;2023-02-28T15:30:49;-21451.44;;;4.98;44.62
19890;BME280;10107;51.198;6.824;2023-02-28T15:34:51;-21451.16;;;4.97;44.70
19890;BME280;10107;51.198;6.824;2023-02-28T15:38:53;-21450.50;;;4.94;44.54
19890;BME280;10107;51.198;6.824;2023-02-28T15:42:58;-21450.50;;;4.94;45.14
19890;BME280;10107;51.198;6.824;2023-02-28T15:47:02;-21448.34;;;4.86;45.60
19890;BME280;10107;51.198;6.824;2023-02-28T15:51:06;-21447.81;;;4.84;45.60
19890;BME280;10107;51.198;6.824;2023-02-28T15:55:08;-21446.06;;;4.78;46.03
19890;BME280;10107;51.198;6.824;2023-02-28T15:59:13;-21444.06;;;4.70;46.32
19890;BME280;10107;51.198;6.824;2023-02-28T16:03:24;-21441.00;;;4.58;47.54
19890;BME280;10107;51.198;6.824;2023-02-28T16:07:26;-21438.59;;;4.49;47.88
19890;BME280;10107;51.198;6.824;2023-02-28T16:11:27;-21437.38;;;4.44;47.33
19890;BME280;10107;51.198;6.824;2023-02-28T16:15:31;-21436.84;;;4.42;47.88
19890;BME280;10107;51.198;6.824;2023-02-28T16:19:36;-21435.78;;;4.38;49.30
19890;BME280;10107;51.198;6.824;2023-02-28T16:23:37;-21432.03;;;4.24;49.81
19890;BME280;10107;51.198;6.824;2023-02-28T16:27:38;-21429.78;;;4.15;50.09
19890;BME280;10107;51.198;6.824;2023-02-28T16:31:40;-21426.97;;;4.04;50.38
19890;BME280;10107;51.198;6.824;2023-02-28T16:35:43;-21424.94;;;3.96;51.44
19890;BME280;10107;51.198;6.824;2023-02-28T16:39:45;-21422.94;;;3.89;52.53
19890;BME280;10107;51.198;6.824;2023-02-28T16:43:46;-21419.59;;;3.76;53.07
19890;BME280;10107;51.198;6.824;2023-02-28T16:47:49;-21417.59;;;3.68;53.22
19890;BME280;10107;51.198;6.824;2023-02-28T16:51:52;-21414.91;;;3.58;54.04
19890;BME280;10107;51.198;6.824;2023-02-28T16:55:53;-21413.59;;;3.53;53.84
19890;BME280;10107;51.198;6.824;2023-02-28T16:59:55;-21411.03;;;3.43;54.95
19890;BME280;10107;51.198;6.824;2023-02-28T17:03:56;-21409.03;;;3.35;54.33
19890;BME280;10107;51.198;6.824;2023-02-28T17:07:59;-21407.41;;;3.29;54.20
19890;BME280;10107;51.198;6.824;2023-02-28T17:12:01;-21403.81;;;3.15;55.62
19890;BME280;10107;51.198;6.824;2023-02-28T17:16:03;-21400.19;;;3.02;55.92
19890;BME280;10107;51.198;6.824;2023-02-28T17:20:05;-21398.44;;;2.95;56.73
19890;BME280;10107;51.198;6.824;2023-02-28T17:24:09;-21397.09;;;2.90;55.89
19890;BME280;10107;51.198;6.824;2023-02-28T17:28:12;-21394.81;;;2.81;56.21
19890;BME280;10107;51.198;6.824;2023-02-28T17:32:14;-21393.09;;;2.74;56.82
19890;BME280;10107;51.198;6.824;2023-02-28T17:36:16;-21392.16;;;2.71;57.55
19890;BME280;10107;51.198;6.824;2023-02-28T17:40:23;-21389.88;;;2.62;58.32
19890;BME280;10107;51.198;6.824;2023-02-28T17:44:24;-21387.31;;;2.52;58.99
19890;BME280;10107;51.198;6.824;2023-02-28T17:48:26;-21385.97;;;2.47;58.46
19890;BME280;10107;51.198;6.824;2023-02-28T17:52:27;-21384.38;;;2.41;59.46
19890;BME280;10107;51.198;6.824;2023-02-28T17:56:30;-21383.03;;;2.36;59.86
19890;BME280;10107;51.198;6.824;2023-02-28T18:00:32;-21381.69;;;2.31;60.25
19890;BME280;10107;51.198;6.824;2023-02-28T18:04:34;-21380.22;;;2.25;61.13
19890;BME280;10107;51.198;6.824;2023-02-28T18:08:36;-21378.06;;;2.17;61.77
19890;BME280;10107;51.198;6.824;2023-02-28T18:12:38;-21376.72;;;2.12;62.59
19890;BME280;10107;51.198;6.824;2023-02-28T18:16:41;-21375.38;;;2.07;62.60
19890;BME280;10107;51.198;6.824;2023-02-28T18:20:43;-21374.03;;;2.02;63.72
19890;BME280;10107;51.198;6.824;2023-02-28T18:24:44;-21373.38;;;1.99;64.15
19890;BME280;10107;51.198;6.824;2023-02-28T18:28:47;-21371.22;;;1.91;64.14
19890;BME280;10107;51.198;6.824;2023-02-28T18:32:49;-21369.75;;;1.85;64.65
19890;BME280;10107;51.198;6.824;2023-02-28T18:36:50;-21367.47;;;1.76;65.43
19890;BME280;10107;51.198;6.824;2023-02-28T18:40:52;-21367.22;;;1.75;65.29
19890;BME280;10107;51.198;6.824;2023-02-28T18:44:55;-21365.72;;;1.70;65.60
19890;BME280;10107;51.198;6.824;2023-02-28T18:48:57;-21364.78;;;1.66;65.78
19890;BME280;10107;51.198;6.824;2023-02-28T18:52:58;-21362.25;;;1.56;66.88
19890;BME280;10107;51.198;6.824;2023-02-28T18:57:02;-21361.84;;;1.55;66.78
19890;BME280;10107;51.198;6.824;2023-02-28T19:01:14;-21361.44;;;1.53;67.17
19890;BME280;10107;51.198;6.824;2023-02-28T19:05:16;-21359.81;;;1.47;67.05
19890;BME280;10107;51.198;6.824;2023-02-28T19:09:18;-21357.81;;;1.39;67.85
19890;BME280;10107;51.198;6.824;2023-02-28T19:13:19;-21355.38;;;1.30;68.40
19890;BME280;10107;51.198;6.824;2023-02-28T19:17:22;-21351.63;;;1.16;69.72
19890;BME280;10107;51.198;6.824;2023-02-28T19:21:24;-21348.69;;;1.05;71.35
19890;BME280;10107;51.198;6.824;2023-02-28T19:25:26;-21344.91;;;0.90;72.91
19890;BME280;10107;51.198;6.824;2023-02-28T19:29:28;-21341.28;;;0.76;73.60
19890;BME280;10107;51.198;6.824;2023-02-28T19:33:30;-21341.00;;;0.75;73.84
19890;BME280;10107;51.198;6.824;2023-02-28T19:37:32;-21341.56;;;0.77;73.40
19890;BME280;10107;51.198;6.824;2023-02-28T19:41:37;-21341.16;;;0.76;74.74
19890;BME280;10107;51.198;6.824;2023-02-28T19:45:38;-21339.13;;;0.68;75.28
19890;BME280;10107;51.198;6.824;2023-02-28T19:49:41;-21338.06;;;0.64;75.04
19890;BME280;10107;51.198;6.824;2023-02-28T19:53:42;-21336.31;;;0.57;75.84
19890;BME280;10107;51.198;6.824;2023-02-28T19:57:44;-21333.91;;;0.48;77.64
19890;BME280;10107;51.198;6.824;2023-02-28T20:01:46;-21330.81;;;0.36;78.29
19890;BME280;10107;51.198;6.824;2023-02-28T20:05:57;-21328.91;;;0.29;78.50
19890;BME280;10107;51.198;6.824;2023-02-28T20:09:59;-21325.03;;;0.14;79.68
19890;BME280;10107;51.198;6.824;2023-02-28T20:14:00;-21323.81;;;0.10;80.50
19890;BME280;10107;51.198;6.824;2023-02-28T20:18:04;-21323.81;;;0.10;80.72
19890;BME280;10107;51.198;6.824;2023-02-28T20:22:07;-21323.13;;;0.07;81.09
19890;BME280;10107;51.198;6.824;2023-02-28T20:26:09;-21323.41;;;0.08;81.52
19890;BME280;10107;51.198;6.824;2023-02-28T20:30:11;-21323.53;;;0.09;80.96
19890;BME280;10107;51.198;6.824;2023-02-28T20:34:12;-21325.28;;;0.15;80.41
19890;BME280;10107;51.198;6.824;2023-02-28T20:38:15;-21325.97;;;0.18;79.90
19890;BME280;10107;51.198;6.824;2023-02-28T20:42:17;-21327.31;;;0.23;79.39
19890;BME280;10107;51.198;6.824;2023-02-28T20:46:19;-21327.03;;;0.22;79.11
19890;BME280;10107;51.198;6.824;2023-02-28T20:50:20;-21327.72;;;0.25;78.98
19890;BME280;10107;51.198;6.824;2023-02-28T20:54:23;-21327.16;;;0.23;79.41
19890;BME280;10107;51.198;6.824;2023-02-28T20:58:27;-21325.03;;;0.14;80.60
19890;BME280;10107;51.198;6.824;2023-02-28T21:02:29;-21323.94;;;0.10;80.54
19890;BME280;10107;51.198;6.824;2023-02-28T21:06:32;-21324.63;;;0.13;80.18
19890;BME280;10107;51.198;6.824;2023-02-28T21:10:35;-21324.75;;;0.13;80.01
19890;BME280;10107;51.198;6.824;2023-02-28T21:14:37;-21323.28;;;0.08;80.84
19890;BME280;10107;51.198;6.824;2023-02-28T21:18:38;-21321.94;;;0.03;81.12
19890;BME280;10107;51.198;6.824;2023-02-28T21:22:40;-21320.72;;;-0.02;81.20
19890;BME280;10107;51.198;6.824;2023-02-28T21:26:43;-21320.97;;;-0.01;81.03
19890;BME280;10107;51.198;6.824;2023-02-28T21:30:46;-21322.31;;;0.04;80.78
19890;BME280;10107;51.198;6.824;2023-02-28T21:34:47;-21322.31;;;0.04;80.77
19890;BME280;10107;51.198;6.824;2023-02-28T21:38:53;-21322.47;;;0.05;80.43
19890;BME280;10107;51.198;6.824;2023-02-28T21:42:57;-21322.47;;;0.05;80.16
19890;BME280;10107;51.198;6.824;2023-02-28T21:46:59;-21321.25;;;0.00;80.70